Time;durP1;ratioP1;P1;durP2;ratioP2;P2;SDS_P1;SDS_P2;PMS_P1;PMS_P2;Temp;Humidity;BMP_temperature;BMP_pressure;BME280_temperature;BME280_humidity;BME280_pressure;Samples;Min_cycle;Max_cycle;Signal;HPM_P1;HPM_P2
2021/06/18 00:00:20;;;;;;;5.93;5.28;;;;;;;22.47;63.51;97694.28;5102114;27;20756;-47
2021/06/18 00:02:48;;;;;;;6.00;5.50;;;;;;;23.02;61.47;97696.13;5102245;27;20204;-47
2021/06/18 00:05:16;;;;;;;5.68;5.18;;;;;;;22.68;62.09;97696.72;5101720;28;20240;-49
2021/06/18 00:07:47;;;;;;;6.78;6.18;;;;;;;22.27;63.42;97696.16;5102195;28;20232;-46
2021/06/18 00:10:16;;;;;;;6.68;6.00;;;;;;;22.06;63.60;97696.31;5102169;27;20232;-46
2021/06/18 00:12:44;;;;;;;8.13;6.03;;;;;;;22.03;63.42;97696.59;5101790;28;20327;-45
2021/06/18 00:15:12;;;;;;;7.53;5.80;;;;;;;22.71;62.20;97695.59;5101318;27;20825;-46
2021/06/18 00:17:39;;;;;;;6.32;5.72;;;;;;;22.02;63.35;97697.59;5101920;27;20200;-48
2021/06/18 00:20:08;;;;;;;5.82;5.30;;;;;;;22.18;63.19;97704.13;5101974;27;20240;-49
2021/06/18 00:22:36;;;;;;;6.57;5.97;;;;;;;22.55;62.83;97703.34;5100983;28;20601;-48
2021/06/18 00:25:03;;;;;;;5.50;5.10;;;;;;;22.82;62.32;97700.69;5102163;27;20220;-45
2021/06/18 00:27:29;;;;;;;5.80;5.30;;;;;;;22.37;61.92;97695.28;5102062;27;20853;-46
2021/06/18 00:29:56;;;;;;;6.55;5.95;;;;;;;22.55;61.90;97692.72;5101669;28;20232;-49
2021/06/18 00:32:22;;;;;;;6.78;6.07;;;;;;;21.63;65.42;97694.94;5100583;28;20267;-45
2021/06/18 00:34:49;;;;;;;6.82;6.22;;;;;;;21.57;64.83;97698.19;5101432;28;20223;-45
2021/06/18 00:37:15;;;;;;;5.65;5.18;;;;;;;22.15;63.53;97689.31;5101864;27;20235;-49
2021/06/18 00:39:43;;;;;;;6.78;6.18;;;;;;;21.35;65.14;97700.09;5102311;27;20232;-49
2021/06/18 00:42:10;;;;;;;5.82;5.43;;;;;;;21.07;65.92;97695.59;5099992;28;20224;-45
2021/06/18 00:44:37;;;;;;;6.55;5.95;;;;;;;21.52;65.13;97695.09;5101632;27;20216;-46
2021/06/18 00:47:04;;;;;;;7.05;6.45;;;;;;;20.76;68.05;97693.00;5101453;27;20227;-46
2021/06/18 00:49:31;;;;;;;6.07;5.57;;;;;;;21.20;66.61;97690.03;5100906;27;20926;-47
2021/06/18 00:51:58;;;;;;;6.20;5.55;;;;;;;21.02;67.90;97695.16;5101274;27;20242;-47
2021/06/18 00:54:29;;;;;;;6.63;6.03;;;;;;;21.02;66.52;97695.97;5102033;28;20328;-48
2021/06/18 00:56:58;;;;;;;6.32;5.82;;;;;;;20.97;66.66;97696.41;5101834;27;20240;-45
2021/06/18 00:59:24;;;;;;;6.18;5.50;;;;;;;20.86;67.80;97690.34;5102791;27;20240;-47
2021/06/18 01:01:51;;;;;;;5.93;5.32;;;;;;;20.97;67.13;97691.09;5100598;27;20251;-46
2021/06/18 01:04:18;;;;;;;5.82;5.25;;;;;;;21.70;65.06;97688.09;5102031;27;20223;-48
2021/06/18 01:06:52;;;;;;;7.20;5.10;;;;;;;22.71;61.65;97690.25;5101398;27;20236;-46
2021/06/18 01:09:20;;;;;;;5.50;4.82;;;;;;;22.45;62.09;97692.75;5101226;28;20256;-46
2021/06/18 01:11:52;;;;;;;6.00;5.28;;;;;;;22.30;62.18;97690.56;5099942;28;20243;-46
2021/06/18 01:14:26;;;;;;;5.70;5.03;;;;;;;22.51;61.44;97692.16;5101048;27;20695;-46
2021/06/18 01:16:54;;;;;;;6.28;5.68;;;;;;;22.66;60.70;97682.75;5100330;28;20239;-47
2021/06/18 01:19:25;;;;;;;7.30;6.57;;;;;;;21.55;63.91;97686.88;5100644;28;20259;-47
2021/06/18 01:21:54;;;;;;;5.85;5.43;;;;;;;22.76;60.91;97682.69;5099246;28;20751;-48
2021/06/18 01:24:32;;;;;;;6.15;5.63;;;;;;;22.67;61.64;97681.75;5100638;28;20242;-48
2021/06/18 01:27:18;;;;;;;6.00;5.45;;;;;;;22.46;62.03;97684.66;5100361;27;20242;-47
2021/06/18 01:29:48;;;;;;;6.32;5.80;;;;;;;21.28;65.66;97688.34;5099694;27;21076;-50
2021/06/18 01:32:19;;;;;;;6.78;6.10;;;;;;;21.60;64.49;97687.28;5100435;27;20597;-48
2021/06/18 01:34:45;;;;;;;5.82;5.38;;;;;;;22.43;62.24;97684.94;5101234;28;20200;-50
2021/06/18 01:37:14;;;;;;;5.90;5.40;;;;;;;22.28;61.93;97675.75;5100611;28;20250;-48
2021/06/18 01:39:41;;;;;;;5.93;5.35;;;;;;;22.09;62.63;97680.13;5100751;28;20741;-46
2021/06/18 01:42:10;;;;;;;5.78;5.38;;;;;;;22.18;62.30;97680.22;5100027;27;20246;-47
2021/06/18 01:44:37;;;;;;;6.25;5.65;;;;;;;21.85;63.02;97675.25;5101147;28;20211;-47
2021/06/18 01:47:06;;;;;;;5.57;5.10;;;;;;;22.47;61.36;97678.34;5100734;28;20316;-47
2021/06/18 01:49:35;;;;;;;6.32;5.72;;;;;;;21.73;63.57;97671.91;5101147;28;20227;-49
2021/06/18 01:52:03;;;;;;;5.88;5.47;;;;;;;22.01;63.50;97661.38;5099520;28;20240;-49
2021/06/18 01:54:30;;;;;;;6.22;5.57;;;;;;;22.36;61.90;97657.25;5099953;28;20212;-47
2021/06/18 01:56:59;;;;;;;6.28;5.45;;;;;;;22.38;61.87;97660.59;5099946;28;20243;-47
2021/06/18 01:59:34;;;;;;;6.15;5.55;;;;;;;22.35;61.83;97658.25;5101987;28;20228;-48
2021/06/18 02:02:01;;;;;;;6.10;5.60;;;;;;;22.50;61.10;97658.63;5099311;28;20238;-46
2021/06/18 02:04:30;;;;;;;5.63;5.13;;;;;;;23.03;60.78;97654.41;5099920;28;20673;-48
2021/06/18 02:06:57;;;;;;;6.30;5.78;;;;;;;22.36;61.60;97656.44;5099607;28;20254;-49
2021/06/18 02:09:25;;;;;;;5.78;5.28;;;;;;;22.81;60.98;97650.31;5101534;28;20235;-47
2021/06/18 02:11:52;;;;;;;5.82;5.32;;;;;;;23.06;59.48;97654.97;5098854;28;20263;-45
2021/06/18 02:14:20;;;;;;;6.18;5.60;;;;;;;23.12;59.68;97648.19;5100677;28;20212;-49
2021/06/18 02:16:51;;;;;;;5.93;5.38;;;;;;;22.85;59.11;97654.38;5099712;28;20236;-46
2021/06/18 02:19:18;;;;;;;6.28;5.78;;;;;;;22.13;61.59;97644.31;5100066;28;20200;-49
2021/06/18 02:21:47;;;;;;;5.72;5.22;;;;;;;22.07;62.39;97655.50;5099876;28;20247;-47
2021/06/18 02:24:15;;;;;;;5.72;5.22;;;;;;;22.82;60.48;97654.69;5100341;28;20706;-47
2021/06/18 02:26:42;;;;;;;6.38;5.88;;;;;;;22.54;60.55;97656.50;5103118;27;21239;-50
2021/06/18 02:29:09;;;;;;;5.90;5.30;;;;;;;22.51;60.32;97650.47;5104946;27;20236;-49
2021/06/18 02:31:38;;;;;;;6.47;5.90;;;;;;;22.95;59.37;97651.66;5103582;27;20236;-47
2021/06/18 02:34:06;;;;;;;5.97;5.38;;;;;;;22.21;61.39;97664.00;5104030;28;20207;-46
2021/06/18 02:36:33;;;;;;;6.22;5.63;;;;;;;22.80;60.25;97657.47;5103515;28;20242;-47
2021/06/18 02:39:01;;;;;;;5.82;5.22;;;;;;;22.66;61.08;97657.97;5104943;27;20208;-46
2021/06/18 02:41:27;;;;;;;6.68;6.07;;;;;;;22.43;61.58;97657.53;5103788;27;20312;-48
2021/06/18 02:43:54;;;;;;;5.93;5.43;;;;;;;23.07;59.89;97664.63;5103360;28;20216;-46
2021/06/18 02:46:25;;;;;;;6.00;5.50;;;;;;;22.66;60.45;97652.66;5103073;28;20236;-46
2021/06/18 02:48:57;;;;;;;6.05;5.55;;;;;;;22.77;60.36;97655.09;5103207;28;20220;-48
2021/06/18 02:51:27;;;;;;;6.32;5.72;;;;;;;22.54;61.52;97664.47;5104036;27;20263;-49
2021/06/18 02:53:59;;;;;;;6.18;5.68;;;;;;;21.95;61.93;97667.28;5103940;27;20265;-46
2021/06/18 02:56:29;;;;;;;5.90;5.35;;;;;;;21.99;62.27;97668.66;5103047;28;20623;-46
2021/06/18 02:59:00;;;;;;;6.13;5.57;;;;;;;21.90;62.71;97661.56;5104194;27;20216;-46
2021/06/18 03:01:30;;;;;;;5.78;5.28;;;;;;;22.03;62.68;97671.88;5102859;27;20254;-49
2021/06/18 03:03:59;;;;;;;6.35;5.68;;;;;;;21.64;62.95;97678.06;5104082;28;20223;-48
2021/06/18 03:06:26;;;;;;;5.40;5.00;;;;;;;22.05;63.21;97677.88;5104606;27;20232;-47
2021/06/18 03:08:55;;;;;;;5.88;5.38;;;;;;;21.20;65.10;97685.56;5103404;28;20247;-50
2021/06/18 03:11:23;;;;;;;6.22;5.63;;;;;;;22.06;62.43;97676.91;5102440;28;20298;-45
2021/06/18 03:13:52;;;;;;;6.22;5.72;;;;;;;22.18;62.07;97680.22;5103348;27;20592;-48
2021/06/18 03:16:19;;;;;;;6.32;5.75;;;;;;;22.06;62.54;97687.53;5103472;27;20244;-47
2021/06/18 03:18:47;;;;;;;6.45;5.28;;;;;;;21.81;63.07;97681.81;5104031;28;20208;-47
2021/06/18 03:21:14;;;;;;;6.10;5.60;;;;;;;22.10;62.37;97687.09;5102811;27;20239;-52
2021/06/18 03:23:42;;;;;;;6.63;6.00;;;;;;;21.51;63.93;97688.13;5103248;27;20707;-47
2021/06/18 03:26:08;;;;;;;6.38;5.78;;;;;;;22.11;62.25;97691.44;5102957;27;20240;-48
2021/06/18 03:28:35;;;;;;;6.07;5.57;;;;;;;22.62;61.25;97696.47;5105343;27;20266;-47
2021/06/18 03:31:07;;;;;;;5.90;5.40;;;;;;;22.39;61.09;97693.34;5102067;28;20240;-46
2021/06/18 03:33:33;;;;;;;5.45;5.05;;;;;;;21.95;63.08;97697.31;5103684;27;20216;-49
2021/06/18 03:36:00;;;;;;;6.50;5.80;;;;;;;22.42;61.44;97698.34;5103203;27;20995;-46
2021/06/18 03:38:27;;;;;;;6.80;6.03;;;;;;;22.53;61.50;97690.19;5102491;28;21006;-50
2021/06/18 03:40:54;;;;;;;6.20;5.72;;;;;;;22.39;60.95;97698.66;5102572;27;20338;-46
2021/06/18 03:43:20;;;;;;;5.93;5.38;;;;;;;21.97;62.56;97691.88;5101613;27;20231;-48
2021/06/18 03:45:49;;;;;;;6.75;6.25;;;;;;;22.78;60.82;97699.34;5101772;27;20236;-49
2021/06/18 03:48:18;;;;;;;6.32;5.82;;;;;;;21.83;62.82;97702.91;5102623;28;20247;-46
2021/06/18 03:50:44;;;;;;;5.95;5.40;;;;;;;22.27;62.01;97705.94;5101995;28;20243;-50
2021/06/18 03:53:11;;;;;;;5.90;5.50;;;;;;;22.19;61.78;97703.97;5103430;27;20220;-48
2021/06/18 03:55:38;;;;;;;6.22;5.63;;;;;;;22.20;61.93;97704.81;5103711;27;20228;-50
2021/06/18 03:58:06;;;;;;;6.00;5.40;;;;;;;22.00;62.82;97710.19;5102282;27;20219;-48
2021/06/18 04:00:35;;;;;;;6.50;5.88;;;;;;;21.54;64.07;97715.22;5101467;28;20666;-47
2021/06/18 04:03:02;;;;;;;6.93;6.30;;;;;;;22.50;62.18;97711.78;5103220;27;20799;-47
2021/06/18 04:05:30;;;;;;;5.85;5.35;;;;;;;22.28;62.50;97704.97;5101873;27;20232;-48
2021/06/18 04:07:58;;;;;;;7.80;7.10;;;;;;;21.56;64.24;97712.44;5103152;28;20224;-48
2021/06/18 04:10:25;;;;;;;6.45;5.85;;;;;;;22.14;63.18;97704.41;5101914;27;20577;-48
2021/06/18 04:12:53;;;;;;;6.65;6.05;;;;;;;22.02;62.96;97702.91;5101975;28;20267;-47
2021/06/18 04:15:22;;;;;;;6.32;5.80;;;;;;;22.49;61.80;97710.91;5099097;27;20291;-49
2021/06/18 04:17:48;;;;;;;6.57;5.97;;;;;;;22.48;61.72;97706.59;5098939;27;20235;-51
2021/06/18 04:20:16;;;;;;;6.10;5.60;;;;;;;22.40;61.96;97706.47;5100823;27;20228;-49
2021/06/18 04:22:45;;;;;;;6.72;6.13;;;;;;;21.42;64.79;97711.00;5100929;28;20247;-46
2021/06/18 04:25:13;;;;;;;6.75;6.13;;;;;;;22.94;61.01;97713.78;5100804;27;20216;-55
2021/06/18 04:27:39;;;;;;;6.25;5.75;;;;;;;22.54;61.79;97702.50;5102588;27;20521;-47
2021/06/18 04:30:08;;;;;;;10.13;6.13;;;;;;;22.54;62.03;97712.31;5100886;27;20239;-48
2021/06/18 04:32:34;;;;;;;6.57;6.05;;;;;;;22.19;62.94;97711.94;5100944;27;20212;-50
2021/06/18 04:35:01;;;;;;;6.97;6.40;;;;;;;22.21;63.18;97722.44;5101270;28;20208;-46
2021/06/18 04:37:28;;;;;;;6.40;5.90;;;;;;;22.23;63.26;97720.47;5100546;27;20763;-47
2021/06/18 04:39:56;;;;;;;6.85;6.25;;;;;;;22.41;62.47;97723.25;5101236;28;20232;-46
2021/06/18 04:42:23;;;;;;;6.65;6.05;;;;;;;21.85;64.43;97722.19;5100972;27;20232;-48
2021/06/18 04:44:49;;;;;;;6.03;5.53;;;;;;;22.78;61.86;97715.28;5101744;27;20212;-46
2021/06/18 04:47:16;;;;;;;6.13;5.57;;;;;;;22.54;62.20;97715.81;5101010;28;20244;-48
2021/06/18 04:49:43;;;;;;;6.65;5.70;;;;;;;22.46;62.68;97721.00;5100957;28;20314;-49
2021/06/18 04:52:10;;;;;;;6.63;6.03;;;;;;;22.67;61.96;97723.44;5099130;28;21103;-46
2021/06/18 04:54:37;;;;;;;8.00;7.10;;;;;;;22.18;63.49;97728.03;5100575;28;20216;-45
2021/06/18 04:57:05;;;;;;;7.53;6.57;;;;;;;21.87;64.97;97728.19;5100293;28;20239;-49
2021/06/18 04:59:35;;;;;;;7.50;6.80;;;;;;;22.07;64.30;97737.81;5101766;27;20228;-47
2021/06/18 05:02:01;;;;;;;8.05;7.38;;;;;;;22.19;63.95;97735.03;5092709;27;20378;-45
2021/06/18 05:04:28;;;;;;;6.65;6.15;;;;;;;23.26;60.69;97729.34;5100488;27;20208;-47
2021/06/18 05:06:54;;;;;;;6.70;6.07;;;;;;;23.29;60.27;97734.38;5103081;28;20224;-46
2021/06/18 05:09:21;;;;;;;6.07;5.57;;;;;;;23.72;59.03;97734.63;5104216;28;20262;-48
2021/06/18 05:11:48;;;;;;;6.35;5.80;;;;;;;23.23;61.29;97740.28;5103199;28;20235;-47
2021/06/18 05:14:16;;;;;;;7.20;6.60;;;;;;;22.69;62.46;97745.41;5103563;28;20223;-46
2021/06/18 05:16:42;;;;;;;6.30;5.80;;;;;;;22.81;62.63;97746.03;5104321;27;20223;-46
2021/06/18 05:19:10;;;;;;;6.82;6.15;;;;;;;22.84;61.62;97754.56;5103284;28;20255;-47
2021/06/18 05:21:37;;;;;;;6.70;6.10;;;;;;;23.57;59.47;97743.13;5102747;27;20243;-46
2021/06/18 05:24:05;;;;;;;6.60;6.00;;;;;;;23.04;60.96;97746.53;5103156;28;20232;-48
2021/06/18 05:26:32;;;;;;;6.22;5.68;;;;;;;23.85;58.65;97749.25;5103371;28;20331;-47
2021/06/18 05:28:59;;;;;;;7.80;6.15;;;;;;;23.42;60.54;97747.31;5103225;28;20236;-46
2021/06/18 05:31:28;;;;;;;7.15;6.40;;;;;;;22.83;61.69;97750.25;5102682;27;20236;-46
2021/06/18 05:33:54;;;;;;;7.55;6.85;;;;;;;22.72;63.09;97753.09;5102593;27;20222;-49
2021/06/18 05:36:21;;;;;;;6.82;6.25;;;;;;;23.28;61.47;97752.13;5098900;28;20720;-47
2021/06/18 05:38:47;;;;;;;6.10;5.57;;;;;;;23.50;60.43;97747.38;5102845;28;20677;-46
2021/06/18 05:41:14;;;;;;;6.82;5.88;;;;;;;23.38;60.98;97753.91;5102610;27;20292;-48
2021/06/18 05:43:40;;;;;;;6.43;5.75;;;;;;;23.48;60.33;97755.50;5103040;28;20228;-49
2021/06/18 05:46:07;;;;;;;6.45;5.85;;;;;;;23.28;60.73;97759.28;5099734;28;20235;-46
2021/06/18 05:48:34;;;;;;;6.50;5.82;;;;;;;23.27;60.61;97762.97;5100107;28;20236;-48
2021/06/18 05:51:01;;;;;;;6.88;5.75;;;;;;;23.92;58.91;97770.78;5102501;28;20308;-47
2021/06/18 05:53:27;;;;;;;6.20;5.55;;;;;;;24.26;57.78;97764.72;5102491;28;20865;-46
2021/06/18 05:55:54;;;;;;;6.28;5.78;;;;;;;25.06;55.66;97772.56;5101721;28;20240;-48
2021/06/18 05:58:20;;;;;;;7.18;6.57;;;;;;;25.41;55.84;97781.41;5103033;28;20216;-46
2021/06/18 06:00:47;;;;;;;8.93;6.55;;;;;;;25.14;56.67;97774.41;5106777;27;20300;-48
2021/06/18 06:03:14;;;;;;;7.53;6.32;;;;;;;25.04;55.89;97777.22;5107119;28;20717;-45
2021/06/18 06:05:41;;;;;;;6.30;5.80;;;;;;;25.87;53.64;97771.13;5106322;27;20237;-47
2021/06/18 06:08:11;;;;;;;7.90;6.40;;;;;;;25.82;54.00;97776.13;5102019;28;20902;-46
2021/06/18 06:10:37;;;;;;;5.97;5.47;;;;;;;25.77;54.01;97771.31;5105953;27;20243;-50
2021/06/18 06:13:04;;;;;;;6.72;6.13;;;;;;;25.84;53.32;97781.31;5106399;27;20216;-46
2021/06/18 06:15:30;;;;;;;9.02;5.90;;;;;;;26.56;51.22;97776.16;5105037;27;20232;-51
2021/06/18 06:17:57;;;;;;;5.93;5.43;;;;;;;26.90;50.72;97777.78;5106019;28;20212;-49
2021/06/18 06:20:23;;;;;;;6.60;5.95;;;;;;;27.12;50.10;97771.66;5106339;28;20244;-47
2021/06/18 06:22:51;;;;;;;7.93;6.53;;;;;;;27.66;49.58;97780.78;5105569;28;20697;-51
2021/06/18 06:25:18;;;;;;;6.07;5.15;;;;;;;28.07;48.57;97780.56;5107249;27;20261;-51
2021/06/18 06:27:44;;;;;;;6.07;5.32;;;;;;;29.00;46.30;97779.34;5106924;28;20208;-48
2021/06/18 06:30:12;;;;;;;6.45;5.95;;;;;;;28.58;46.60;97775.44;5107155;27;20263;-50
2021/06/18 06:32:39;;;;;;;7.60;5.88;;;;;;;29.24;46.02;97777.41;5106706;28;20241;-49
2021/06/18 06:35:06;;;;;;;6.55;5.68;;;;;;;27.95;48.00;97782.00;5106939;28;20216;-48
2021/06/18 06:37:33;;;;;;;5.82;5.32;;;;;;;28.07;48.03;97772.53;5106661;27;20236;-49
2021/06/18 06:40:01;;;;;;;6.20;5.18;;;;;;;28.47;46.99;97773.16;5106806;28;20675;-48
2021/06/18 06:42:27;;;;;;;5.78;5.25;;;;;;;28.83;46.76;97764.44;5105925;27;20232;-48
2021/06/18 06:44:54;;;;;;;5.70;5.20;;;;;;;29.70;44.88;97771.75;5106312;28;20678;-48
2021/06/18 06:47:20;;;;;;;7.53;5.22;;;;;;;29.58;45.84;97768.72;5106562;27;20308;-48
2021/06/18 06:49:47;;;;;;;5.85;5.10;;;;;;;30.64;43.11;97761.84;5106362;28;20240;-47
2021/06/18 06:52:14;;;;;;;5.90;5.40;;;;;;;30.75;45.01;97763.97;5105869;28;20247;-49
2021/06/18 06:54:40;;;;;;;5.90;5.18;;;;;;;31.18;42.61;97768.41;5105867;28;20223;-47
2021/06/18 06:57:08;;;;;;;5.28;4.88;;;;;;;30.69;43.47;97770.97;5106908;27;20267;-51
2021/06/18 06:59:35;;;;;;;5.93;5.18;;;;;;;31.31;42.31;97758.50;5106605;27;20276;-47
2021/06/18 07:02:02;;;;;;;5.60;5.10;;;;;;;32.34;40.07;97754.78;5105757;27;20789;-52
2021/06/18 07:04:28;;;;;;;5.72;5.22;;;;;;;32.98;38.91;97757.84;5107319;27;20216;-49
2021/06/18 07:06:55;;;;;;;5.30;4.80;;;;;;;33.59;37.66;97751.97;5105984;27;21287;-51
2021/06/18 07:09:22;;;;;;;7.05;5.07;;;;;;;34.04;37.11;97750.25;5105877;28;20231;-51
2021/06/18 07:11:49;;;;;;;5.72;4.60;;;;;;;34.48;35.85;97753.88;5104462;28;20270;-52
2021/06/18 07:14:16;;;;;;;6.18;4.97;;;;;;;34.50;36.14;97744.50;5105673;28;20212;-49
2021/06/18 07:16:43;;;;;;;5.93;5.30;;;;;;;34.04;37.02;97755.66;5105980;27;20240;-49
2021/06/18 07:19:09;;;;;;;6.60;5.05;;;;;;;34.23;36.38;97749.31;5107060;27;20223;-50
2021/06/18 07:21:36;;;;;;;5.65;5.15;;;;;;;34.74;35.81;97750.13;5105221;28;20250;-51
2021/06/18 07:24:03;;;;;;;5.43;4.93;;;;;;;35.40;34.82;97748.56;5105657;27;20226;-51
2021/06/18 07:26:30;;;;;;;5.50;5.00;;;;;;;35.61;35.16;97749.09;5106421;27;20244;-51
2021/06/18 07:28:56;;;;;;;5.55;5.05;;;;;;;36.09;34.09;97745.47;5107510;27;20214;-50
2021/06/18 07:31:24;;;;;;;5.35;4.95;;;;;;;36.65;33.26;97735.13;5105685;27;20854;-50
2021/06/18 07:33:50;;;;;;;6.00;5.60;;;;;;;36.23;33.47;97741.53;5106029;27;20216;-50
2021/06/18 07:36:17;;;;;;;5.35;4.95;;;;;;;36.38;33.78;97734.81;5105518;27;20236;-48
2021/06/18 07:38:44;;;;;;;5.40;4.95;;;;;;;37.82;31.35;97735.09;5105282;28;20798;-51
2021/06/18 07:41:10;;;;;;;5.60;5.10;;;;;;;36.81;32.50;97725.47;5107246;27;20363;-51
2021/06/18 07:43:36;;;;;;;5.88;5.38;;;;;;;37.77;31.67;97733.09;5105306;27;20246;-50
2021/06/18 07:46:03;;;;;;;6.03;5.15;;;;;;;36.50;33.13;97730.19;5105025;28;20239;-52
2021/06/18 07:48:31;;;;;;;5.80;5.30;;;;;;;37.39;31.86;97721.78;5105571;28;20223;-51
2021/06/18 07:50:57;;;;;;;6.47;5.05;;;;;;;37.24;31.96;97724.22;5105490;27;20243;-53
2021/06/18 07:53:24;;;;;;;5.90;5.40;;;;;;;37.74;31.58;97726.25;5106571;27;20216;-50
2021/06/18 07:55:53;;;;;;;5.82;5.32;;;;;;;38.54;30.64;97732.47;5104337;27;20232;-52
2021/06/18 07:58:20;;;;;;;5.15;4.78;;;;;;;38.78;30.07;97728.75;5105269;27;20685;-49
2021/06/18 08:00:47;;;;;;;7.18;5.00;;;;;;;39.20;30.34;97723.56;5105940;27;20235;-47
2021/06/18 08:03:14;;;;;;;5.38;4.97;;;;;;;38.05;30.25;97721.34;5105139;28;20208;-50
2021/06/18 08:05:42;;;;;;;6.32;5.40;;;;;;;38.72;30.17;97722.41;5104999;28;20236;-49
2021/06/18 08:08:08;;;;;;;5.78;5.28;;;;;;;39.33;29.81;97714.97;5105501;28;20219;-49
2021/06/18 08:10:35;;;;;;;6.13;4.72;;;;;;;39.26;27.22;97711.66;5104344;28;20236;-50
2021/06/18 08:13:02;;;;;;;5.32;4.90;;;;;;;38.78;28.49;97696.84;5106037;27;20250;-52
2021/06/18 08:15:28;;;;;;;6.13;4.20;;;;;;;37.95;29.28;97710.28;5104314;27;20236;-47
2021/06/18 08:17:56;;;;;;;4.65;4.25;;;;;;;38.98;28.35;97701.72;5106112;27;20595;-50
2021/06/18 08:20:25;;;;;;;4.97;4.25;;;;;;;39.21;28.04;97697.97;5105237;27;20228;-51
2021/06/18 08:22:56;;;;;;;4.80;4.40;;;;;;;39.39;27.68;97707.72;5103499;28;20244;-48
2021/06/18 08:25:23;;;;;;;5.32;4.63;;;;;;;40.00;26.67;97702.06;5105291;27;20740;-49
2021/06/18 08:27:49;;;;;;;4.93;4.53;;;;;;;38.98;27.97;97699.00;5105811;27;20222;-50
2021/06/18 08:30:17;;;;;;;6.25;4.80;;;;;;;39.22;27.72;97704.22;5104485;27;20247;-53
2021/06/18 08:32:43;;;;;;;4.97;4.60;;;;;;;38.26;28.66;97703.44;5103968;28;20220;-52
2021/06/18 08:35:10;;;;;;;5.72;4.80;;;;;;;39.39;28.04;97706.88;5105309;27;20216;-52
2021/06/18 08:37:36;;;;;;;4.50;4.25;;;;;;;39.56;27.78;97704.91;5105620;27;20216;-49
2021/06/18 08:40:06;;;;;;;5.88;4.78;;;;;;;39.19;27.35;97699.28;5104506;27;20752;-51
2021/06/18 08:42:33;;;;;;;5.18;4.68;;;;;;;38.40;27.99;97701.22;5104909;27;20230;-49
2021/06/18 08:45:00;;;;;;;5.03;4.63;;;;;;;38.14;28.58;97705.44;5106135;27;20216;-49
2021/06/18 08:47:26;;;;;;;4.65;4.25;;;;;;;37.94;28.85;97714.09;5104280;27;20235;-48
2021/06/18 08:49:53;;;;;;;4.78;4.38;;;;;;;38.74;28.48;97717.50;5104149;27;20452;-53
2021/06/18 08:52:19;;;;;;;4.95;4.18;;;;;;;39.32;27.15;97710.63;5103868;27;20242;-51
2021/06/18 08:54:46;;;;;;;4.90;4.38;;;;;;;39.29;27.84;97705.66;5105429;27;20212;-52
2021/06/18 08:57:16;;;;;;;4.55;4.25;;;;;;;39.05;28.72;97702.41;5104300;27;20461;-51
2021/06/18 08:59:43;;;;;;;5.55;5.15;;;;;;;38.23;29.01;97705.84;5106579;27;20319;-49
2021/06/18 09:02:10;;;;;;;5.40;4.90;;;;;;;38.93;28.06;97707.97;5102958;27;20235;-49
2021/06/18 09:05:03;;;;;;;4.97;4.57;;;;;;;39.11;27.43;97708.75;5103763;27;20216;-51
2021/06/18 09:07:30;;;;;;;4.97;4.57;;;;;;;38.76;28.21;97707.19;5103317;28;20414;-49
2021/06/18 09:09:56;;;;;;;5.05;4.57;;;;;;;38.99;27.95;97702.56;5105448;27;20247;-49
2021/06/18 09:12:24;;;;;;;4.72;4.32;;;;;;;38.98;27.79;97709.09;5103420;27;20859;-51
2021/06/18 09:14:50;;;;;;;4.85;4.53;;;;;;;38.63;28.83;97711.09;5102887;28;20338;-52
2021/06/18 09:17:19;;;;;;;5.38;4.82;;;;;;;39.02;28.22;97710.25;5103570;27;20235;-52
2021/06/18 09:19:48;;;;;;;6.03;4.85;;;;;;;38.74;27.19;97709.34;5103889;27;20232;-49
2021/06/18 09:22:17;;;;;;;5.00;4.50;;;;;;;40.19;26.21;97707.91;5102944;28;20259;-51
2021/06/18 09:24:46;;;;;;;5.72;4.57;;;;;;;38.17;27.81;97711.22;5103856;28;20220;-49
2021/06/18 09:27:13;;;;;;;4.78;4.28;;;;;;;38.93;27.49;97710.69;5104903;28;20732;-50
2021/06/18 09:29:42;;;;;;;5.30;4.80;;;;;;;38.98;27.59;97709.91;5107397;27;20636;-50
2021/06/18 09:32:10;;;;;;;5.00;4.60;;;;;;;39.61;27.39;97710.41;5102561;27;20728;-50
2021/06/18 09:34:48;;;;;;;5.10;4.70;;;;;;;39.32;27.21;97721.53;5103871;27;20215;-51
2021/06/18 09:37:23;;;;;;;4.82;4.43;;;;;;;39.20;27.66;97723.56;5103549;28;20263;-52
2021/06/18 09:40:11;;;;;;;4.97;4.57;;;;;;;39.45;27.37;97711.31;5103997;28;20242;-48
2021/06/18 09:42:41;;;;;;;4.53;4.13;;;;;;;38.74;27.13;97717.50;5102875;28;20245;-51
2021/06/18 09:45:12;;;;;;;4.80;4.40;;;;;;;39.04;27.56;97714.41;5090948;28;20212;-49
2021/06/18 09:47:39;;;;;;;4.78;4.38;;;;;;;38.97;27.90;97712.88;5104150;28;20212;-50
2021/06/18 09:50:20;;;;;;;4.88;4.47;;;;;;;38.78;28.11;97713.19;5102966;28;20235;-50
2021/06/18 09:52:47;;;;;;;5.35;4.95;;;;;;;39.50;26.99;97711.38;5103531;28;20223;-47
2021/06/18 09:55:20;;;;;;;4.95;4.57;;;;;;;38.62;28.29;97706.75;5103197;28;20227;-47
2021/06/18 09:57:53;;;;;;;5.05;4.72;;;;;;;38.36;28.31;97708.22;5103905;28;20215;-52
2021/06/18 10:00:22;;;;;;;5.10;4.70;;;;;;;38.64;27.95;97709.19;5103534;28;20600;-50
2021/06/18 10:02:50;;;;;;;5.00;4.60;;;;;;;38.48;28.05;97706.22;5103636;28;20794;-50
2021/06/18 10:05:18;;;;;;;4.65;4.35;;;;;;;38.44;28.59;97705.09;5103320;28;20303;-51
2021/06/18 10:07:46;;;;;;;5.05;4.50;;;;;;;37.70;29.77;97700.63;5103408;28;20227;-50
2021/06/18 10:10:15;;;;;;;5.32;4.50;;;;;;;36.24;31.45;97696.19;5103136;28;20236;-51
2021/06/18 10:12:43;;;;;;;5.22;4.53;;;;;;;35.63;32.37;97692.72;5102939;28;20290;-48
2021/06/18 10:15:11;;;;;;;4.95;4.55;;;;;;;36.14;31.77;97699.47;5102377;28;20284;-52
2021/06/18 10:17:41;;;;;;;4.93;4.53;;;;;;;35.61;32.45;97692.13;5103817;28;20212;-49
2021/06/18 10:20:10;;;;;;;4.63;4.32;;;;;;;36.71;31.32;97689.91;5103240;28;20232;-49
2021/06/18 10:22:39;;;;;;;4.97;4.50;;;;;;;36.31;31.58;97682.50;5103300;28;20672;-53
2021/06/18 10:25:09;;;;;;;5.28;4.78;;;;;;;35.73;31.96;97684.88;5103396;28;20684;-51
2021/06/18 10:27:41;;;;;;;5.30;4.80;;;;;;;35.90;31.95;97687.75;5104210;28;20243;-51
2021/06/18 10:30:23;;;;;;;5.20;4.80;;;;;;;36.14;31.54;97677.75;5103155;28;20247;-49
2021/06/18 10:32:52;;;;;;;4.60;4.20;;;;;;;35.93;32.06;97675.59;5102732;28;20282;-49
2021/06/18 10:35:45;;;;;;;4.57;4.28;;;;;;;36.40;31.07;97670.22;5101982;28;20600;-50
2021/06/18 10:38:24;;;;;;;4.57;4.18;;;;;;;36.83;30.55;97668.97;5103283;28;20257;-48
2021/06/18 10:40:51;;;;;;;4.68;4.28;;;;;;;37.55;30.82;97673.94;5102490;28;20235;-51
2021/06/18 10:43:18;;;;;;;4.85;4.30;;;;;;;37.02;30.34;97667.75;5103053;28;20215;-48
2021/06/18 10:46:09;;;;;;;5.30;4.80;;;;;;;36.77;30.22;97668.06;5103061;28;20247;-49
2021/06/18 10:48:56;;;;;;;6.43;4.57;;;;;;;36.38;30.13;97666.91;5081325;27;20216;-51
2021/06/18 10:51:32;;;;;;;4.78;4.43;;;;;;;36.54;30.04;97671.63;5106060;27;20654;-51
2021/06/18 10:54:02;;;;;;;5.32;4.32;;;;;;;36.52;30.51;97667.47;5107040;27;20232;-49
2021/06/18 10:57:14;;;;;;;4.60;4.30;;;;;;;36.85;29.38;97662.25;5107576;27;20650;-51
2021/06/18 10:59:43;;;;;;;4.60;4.20;;;;;;;36.08;31.08;97665.09;5106738;27;20240;-50
2021/06/18 11:02:34;;;;;;;4.45;4.05;;;;;;;36.15;30.85;97657.66;5105796;27;20228;-51
2021/06/18 11:05:04;;;;;;;4.90;4.50;;;;;;;36.19;30.41;97658.91;5106755;27;20230;-50
2021/06/18 11:07:33;;;;;;;4.28;3.88;;;;;;;36.45;30.72;97662.19;5106940;27;20232;-50
2021/06/18 11:10:00;;;;;;;5.30;4.30;;;;;;;36.06;30.16;97661.78;5108573;27;20322;-52
2021/06/18 11:12:44;;;;;;;4.63;4.28;;;;;;;36.06;30.93;97648.22;5105658;27;20220;-51
2021/06/18 11:15:37;;;;;;;4.93;4.53;;;;;;;35.69;31.53;97653.84;5107312;27;20270;-50
2021/06/18 11:18:11;;;;;;;4.50;4.10;;;;;;;34.99;32.35;97641.66;5106129;28;20208;-51
2021/06/18 11:20:50;;;;;;;5.28;4.60;;;;;;;34.66;33.41;97645.56;5106415;27;20247;-48
2021/06/18 11:23:20;;;;;;;4.80;4.30;;;;;;;32.94;35.85;97638.56;5106411;27;20204;-51
2021/06/18 11:25:55;;;;;;;5.28;4.88;;;;;;;32.82;36.57;97633.00;5106009;27;20231;-51
2021/06/18 11:28:37;;;;;;;6.25;5.53;;;;;;;31.57;39.20;97635.66;5106067;28;20226;-52
2021/06/18 11:31:06;;;;;;;5.35;4.85;;;;;;;32.56;38.13;97641.19;5105937;27;20266;-50
2021/06/18 11:33:56;;;;;;;5.07;4.25;;;;;;;33.94;33.60;97632.53;5106417;27;20211;-48
2021/06/18 11:36:51;;;;;;;4.68;4.28;;;;;;;33.92;33.80;97644.63;5105084;28;20810;-50
2021/06/18 11:39:25;;;;;;;5.38;4.95;;;;;;;33.52;34.08;97643.03;5106034;27;20257;-49
2021/06/18 11:42:00;;;;;;;6.03;4.65;;;;;;;32.64;34.71;97640.97;5105638;27;20293;-48